createdAt,value
2023-05-15T00:01:38.874Z,14.13
2023-05-15T00:04:05.619Z,13.83
2023-05-15T00:06:32.239Z,14.01
2023-05-15T00:08:58.735Z,13.95
2023-05-15T00:11:27.889Z,14.11
2023-05-15T00:13:54.712Z,14.07
2023-05-15T00:16:21.263Z,14.01
2023-05-15T00:18:47.818Z,14.02
2023-05-15T00:21:14.328Z,13.87
2023-05-15T00:23:40.784Z,13.94
2023-05-15T00:26:07.263Z,13.89
2023-05-15T00:28:33.782Z,14.04
2023-05-15T00:31:00.330Z,13.86
2023-05-15T00:33:26.828Z,14.09
2023-05-15T00:35:53.314Z,13.74
2023-05-15T00:38:19.774Z,13.73
2023-05-15T00:40:46.602Z,13.47
2023-05-15T00:43:13.297Z,13.65
2023-05-15T00:45:41.419Z,13.71
2023-05-15T00:48:09.879Z,13.74
2023-05-15T00:50:36.670Z,13.16
2023-05-15T00:53:03.552Z,13.67
2023-05-15T00:55:31.394Z,13.38
2023-05-15T00:57:58.111Z,13.43
2023-05-15T01:00:25.148Z,13.39
2023-05-15T01:02:52.406Z,13.56
2023-05-15T01:05:19.112Z,13.67
2023-05-15T01:07:52.831Z,13.65
2023-05-15T01:10:19.743Z,13.23
2023-05-15T01:12:47.486Z,13.03
2023-05-15T01:15:14.025Z,13.05
2023-05-15T01:17:40.825Z,13.25
2023-05-15T01:20:10.387Z,13.01
2023-05-15T01:22:53.188Z,13.21
2023-05-15T01:25:22.896Z,13.11
2023-05-15T01:27:51.748Z,13.14
2023-05-15T01:30:22.726Z,12.70
2023-05-15T01:33:08.755Z,13.32
2023-05-15T01:35:39.927Z,12.68
2023-05-15T01:38:09.511Z,12.87
2023-05-15T01:40:36.017Z,12.74
2023-05-15T01:43:08.465Z,13.02
2023-05-15T01:45:36.025Z,12.93
2023-05-15T01:48:07.735Z,13.06
2023-05-15T01:50:36.012Z,12.78
2023-05-15T01:53:03.229Z,12.68
2023-05-15T01:55:30.817Z,12.79
2023-05-15T01:58:00.932Z,12.76
2023-05-15T02:00:27.477Z,12.60
2023-05-15T02:02:54.529Z,12.54
2023-05-15T02:05:22.137Z,12.86
2023-05-15T02:07:49.305Z,12.77
2023-05-15T02:10:17.731Z,12.81
2023-05-15T02:12:44.373Z,12.80
2023-05-15T02:15:11.823Z,12.89
2023-05-15T02:17:38.562Z,12.56
2023-05-15T02:20:08.589Z,12.37
2023-05-15T02:22:35.064Z,12.72
2023-05-15T02:25:01.917Z,13.09
2023-05-15T02:27:33.860Z,12.90
2023-05-15T02:30:06.616Z,12.85
2023-05-15T02:32:58.448Z,12.86
2023-05-15T02:35:31.087Z,12.85
2023-05-15T02:38:00.989Z,12.88
2023-05-15T02:40:28.961Z,12.87
2023-05-15T02:42:57.026Z,12.64
2023-05-15T02:45:24.398Z,12.52
2023-05-15T02:47:51.717Z,12.88
2023-05-15T02:50:18.578Z,12.79
2023-05-15T02:52:45.036Z,12.85
2023-05-15T02:55:11.484Z,12.66
2023-05-15T02:57:38.004Z,12.71
2023-05-15T03:00:07.507Z,12.71
2023-05-15T03:02:34.015Z,12.52
2023-05-15T03:05:00.503Z,12.61
2023-05-15T03:07:27.271Z,12.51
2023-05-15T03:09:53.692Z,12.32
2023-05-15T03:12:20.228Z,12.46
2023-05-15T03:14:46.701Z,12.52
2023-05-15T03:17:13.282Z,12.47
2023-05-15T03:19:39.819Z,12.62
2023-05-15T03:22:06.324Z,12.41
2023-05-15T03:24:32.817Z,12.48
2023-05-15T03:26:59.249Z,12.40
2023-05-15T03:29:25.828Z,12.54
2023-05-15T03:31:52.384Z,12.47
2023-05-15T03:34:18.923Z,12.57
2023-05-15T03:36:45.601Z,12.44
2023-05-15T03:39:12.099Z,12.27
2023-05-15T03:41:38.547Z,12.60
2023-05-15T03:44:05.168Z,12.61
2023-05-15T03:46:31.674Z,12.67
2023-05-15T03:48:58.405Z,12.65
2023-05-15T03:51:25.068Z,12.81
2023-05-15T03:53:51.559Z,12.67
2023-05-15T03:56:18.063Z,12.50
2023-05-15T03:58:44.612Z,12.36
2023-05-15T04:01:11.090Z,12.24
2023-05-15T04:03:37.586Z,12.55
2023-05-15T04:06:04.363Z,12.36
2023-05-15T04:08:30.865Z,12.59
2023-05-15T04:10:57.361Z,12.88
2023-05-15T04:13:23.840Z,12.85
2023-05-15T04:15:50.394Z,13.15
2023-05-15T04:18:16.911Z,13.08
2023-05-15T04:20:43.355Z,13.11
2023-05-15T04:23:09.831Z,13.24
2023-05-15T04:25:36.612Z,13.26
2023-05-15T04:28:03.183Z,13.45
2023-05-15T04:30:29.716Z,13.62
2023-05-15T04:32:56.580Z,13.71
2023-05-15T04:35:23.319Z,13.51
2023-05-15T04:37:49.958Z,13.62
2023-05-15T04:40:16.940Z,13.54
2023-05-15T04:42:43.630Z,13.60
2023-05-15T04:45:10.919Z,13.53
2023-05-15T04:47:37.845Z,13.55
2023-05-15T04:50:04.629Z,13.55
2023-05-15T04:52:32.211Z,13.51
2023-05-15T04:54:58.784Z,13.67
2023-05-15T04:57:25.819Z,13.79
2023-05-15T04:59:52.517Z,13.57
2023-05-15T05:02:22.743Z,13.92
2023-05-15T05:04:49.829Z,14.08
2023-05-15T05:07:16.462Z,13.69
2023-05-15T05:09:43.102Z,14.27
2023-05-15T05:12:09.970Z,13.87
2023-05-15T05:14:36.820Z,14.24
2023-05-15T05:17:03.652Z,14.15
2023-05-15T05:19:30.183Z,14.18
2023-05-15T05:21:58.442Z,14.57
2023-05-15T05:24:25.255Z,14.59
2023-05-15T05:26:51.719Z,14.26
2023-05-15T05:29:18.197Z,14.91
2023-05-15T05:31:46.888Z,14.68
2023-05-15T05:34:13.603Z,15.00
2023-05-15T05:36:40.069Z,15.51
2023-05-15T05:39:06.901Z,16.02
2023-05-15T05:41:33.428Z,16.05
2023-05-15T05:43:59.908Z,16.13
2023-05-15T05:46:27.326Z,16.34
2023-05-15T05:48:53.880Z,15.80
2023-05-15T05:51:20.720Z,16.16
2023-05-15T05:53:47.220Z,16.89
2023-05-15T05:56:13.845Z,17.03
2023-05-15T05:58:40.325Z,17.33
2023-05-15T06:01:07.079Z,17.47
2023-05-15T06:03:34.317Z,16.93
2023-05-15T06:06:00.975Z,17.36
2023-05-15T06:08:29.099Z,17.06
2023-05-15T06:10:55.665Z,17.29
2023-05-15T06:13:22.222Z,17.30
2023-05-15T06:15:48.693Z,17.57
2023-05-15T06:18:15.227Z,17.85
2023-05-15T06:20:42.899Z,17.72
2023-05-15T06:23:09.815Z,17.75
2023-05-15T06:25:36.530Z,17.80
2023-05-15T06:28:03.231Z,17.87
2023-05-15T06:30:29.839Z,17.64
2023-05-15T06:32:56.297Z,17.86
2023-05-15T06:35:25.860Z,18.35
2023-05-15T06:37:53.513Z,18.16
2023-05-15T06:40:21.155Z,18.23
2023-05-15T06:42:47.757Z,18.57
2023-05-15T06:45:14.317Z,18.75
2023-05-15T06:47:41.263Z,18.83
2023-05-15T06:50:08.463Z,18.65
2023-05-15T06:52:36.009Z,18.98
2023-05-15T06:55:02.707Z,18.57
2023-05-15T06:57:29.149Z,18.53
2023-05-15T06:59:57.095Z,19.28
2023-05-15T07:02:23.541Z,19.37
2023-05-15T07:04:50.166Z,20.07
2023-05-15T07:07:16.737Z,20.33
2023-05-15T07:09:45.719Z,19.56
2023-05-15T07:12:12.167Z,19.95
2023-05-15T07:14:38.648Z,19.46
2023-05-15T07:17:05.161Z,19.88
2023-05-15T07:19:31.668Z,20.17
2023-05-15T07:21:58.164Z,19.87
2023-05-15T07:24:24.670Z,20.26
2023-05-15T07:29:23.862Z,21.46
2023-05-15T07:31:50.454Z,21.54
2023-05-15T07:34:17.007Z,20.95
2023-05-15T07:36:43.464Z,22.14
2023-05-15T07:39:10.621Z,22.25
2023-05-15T07:41:37.295Z,22.71
2023-05-15T07:44:03.884Z,22.19
2023-05-15T07:46:30.423Z,22.71
2023-05-15T07:48:57.004Z,22.61
2023-05-15T07:51:23.484Z,22.51
2023-05-15T07:53:50.106Z,22.54
2023-05-15T07:56:16.605Z,22.13
2023-05-15T07:58:43.120Z,22.42
2023-05-15T08:01:09.668Z,22.33
2023-05-15T08:03:36.367Z,22.43
2023-05-15T08:06:02.996Z,22.80
2023-05-15T08:08:29.473Z,22.41
2023-05-15T08:10:56.036Z,22.48
2023-05-15T08:13:22.504Z,22.93
2023-05-15T08:15:49.087Z,22.93
2023-05-15T08:18:15.700Z,23.74
2023-05-15T08:20:42.160Z,24.31
2023-05-15T08:23:08.791Z,22.85
2023-05-15T08:25:35.310Z,23.59
2023-05-15T08:28:02.826Z,23.59
2023-05-15T08:30:29.349Z,23.71
2023-05-15T08:32:55.858Z,23.82
2023-05-15T08:35:22.432Z,23.33
2023-05-15T08:37:48.915Z,23.55
2023-05-15T08:40:15.622Z,23.69
2023-05-15T08:42:50.595Z,24.20
2023-05-15T08:45:17.201Z,24.48
2023-05-15T08:47:44.210Z,24.24
2023-05-15T08:50:15.938Z,23.93
2023-05-15T08:52:45.387Z,24.25
2023-05-15T08:55:11.994Z,24.27
2023-05-15T08:57:39.024Z,24.06
2023-05-15T09:00:09.575Z,23.48
2023-05-15T09:02:37.513Z,24.13
2023-05-15T09:05:05.444Z,23.69
2023-05-15T09:07:32.237Z,24.23
2023-05-15T09:09:59.727Z,24.76
2023-05-15T09:12:26.757Z,24.36
2023-05-15T09:15:08.784Z,24.74
2023-05-15T09:17:35.372Z,24.63
2023-05-15T09:20:06.016Z,25.13
2023-05-15T09:22:36.479Z,24.89
2023-05-15T09:25:04.199Z,24.64
2023-05-15T09:27:47.204Z,24.66
2023-05-15T09:30:24.255Z,24.33
2023-05-15T09:32:51.619Z,25.05
2023-05-15T09:35:37.660Z,25.11
2023-05-15T09:38:09.076Z,24.58
2023-05-15T09:40:35.577Z,25.23
2023-05-15T09:43:02.100Z,25.81
2023-05-15T09:45:30.353Z,25.30
2023-05-15T09:48:00.126Z,25.29
2023-05-15T09:50:37.832Z,26.41
2023-05-15T09:53:05.231Z,26.45
2023-05-15T09:55:36.288Z,26.75
2023-05-15T09:58:13.831Z,26.15
2023-05-15T10:00:48.306Z,26.60
2023-05-15T10:03:17.912Z,25.34
2023-05-15T10:05:44.688Z,25.13
2023-05-15T10:08:12.338Z,25.08
2023-05-15T10:10:38.953Z,24.69
2023-05-15T10:13:07.298Z,24.54
2023-05-15T10:15:34.222Z,25.12
2023-05-15T10:18:01.465Z,25.22
2023-05-15T10:20:28.146Z,25.03
2023-05-15T10:22:56.282Z,24.28
2023-05-15T10:25:28.106Z,24.76
2023-05-15T10:27:55.320Z,24.89
2023-05-15T10:30:22.291Z,25.34
2023-05-15T10:32:49.748Z,25.93
2023-05-15T10:35:17.241Z,26.62
2023-05-15T10:37:45.896Z,26.85
2023-05-15T10:40:13.356Z,26.27
2023-05-15T10:42:42.508Z,26.16
2023-05-15T10:45:09.766Z,26.44
2023-05-15T10:47:37.697Z,26.99
2023-05-15T10:50:05.454Z,27.16
2023-05-15T10:52:33.511Z,26.66
2023-05-15T10:55:00.653Z,26.78
2023-05-15T10:57:30.278Z,26.40
2023-05-15T10:59:57.000Z,26.12
2023-05-15T11:02:29.460Z,25.70
2023-05-15T11:05:00.943Z,25.08
2023-05-15T11:07:28.314Z,26.04
2023-05-15T11:09:56.086Z,27.17
2023-05-15T11:12:23.446Z,26.31
2023-05-15T11:14:55.905Z,25.87
2023-05-15T11:17:25.822Z,24.70
2023-05-15T11:19:52.294Z,25.04
2023-05-15T11:22:26.853Z,25.77
2023-05-15T11:25:00.841Z,26.66
2023-05-15T11:27:29.560Z,26.79
2023-05-15T11:30:08.137Z,26.19
2023-05-15T11:32:47.047Z,27.17
2023-05-15T11:35:14.636Z,27.30
2023-05-15T11:37:47.293Z,27.06
2023-05-15T11:40:39.667Z,27.07
2023-05-15T11:43:08.813Z,26.78
2023-05-15T11:45:37.930Z,26.11
2023-05-15T11:48:06.825Z,26.07
2023-05-15T11:50:34.717Z,25.42
2023-05-15T11:53:08.583Z,25.72
2023-05-15T11:55:37.480Z,26.15
2023-05-15T11:58:08.598Z,24.95
2023-05-15T12:00:35.111Z,24.35
2023-05-15T12:03:03.843Z,25.04
2023-05-15T12:05:31.132Z,25.37
2023-05-15T12:07:58.087Z,24.97
2023-05-15T12:10:24.864Z,24.76
2023-05-15T12:12:51.681Z,24.81
2023-05-15T12:15:18.198Z,24.34
2023-05-15T12:17:45.400Z,23.91
2023-05-15T12:20:17.825Z,24.25
2023-05-15T12:22:44.878Z,23.91
2023-05-15T12:25:12.487Z,23.95
2023-05-15T12:27:39.857Z,24.69
2023-05-15T12:30:07.541Z,25.34
2023-05-15T12:32:36.171Z,23.90
2023-05-15T12:35:03.776Z,24.40
2023-05-15T12:37:35.583Z,24.08
2023-05-15T12:40:10.408Z,23.80
2023-05-15T12:42:44.224Z,23.32
2023-05-15T12:45:14.336Z,24.22
2023-05-15T12:47:40.911Z,24.14
2023-05-15T12:50:22.573Z,24.29
2023-05-15T12:52:56.784Z,23.89
2023-05-15T12:55:27.152Z,23.38
2023-05-15T12:57:57.578Z,23.23
2023-05-15T13:00:24.567Z,23.23
2023-05-15T13:02:54.151Z,23.77
2023-05-15T13:05:23.148Z,23.38
2023-05-15T13:07:49.917Z,23.23
2023-05-15T13:10:16.452Z,22.96
2023-05-15T13:12:45.315Z,23.01
2023-05-15T13:15:35.535Z,23.33
2023-05-15T13:18:07.707Z,23.40
2023-05-15T13:20:38.681Z,23.56
2023-05-15T13:23:05.594Z,24.22
2023-05-15T13:25:32.425Z,24.06
2023-05-15T13:28:00.801Z,24.00
2023-05-15T13:30:28.387Z,24.53
2023-05-15T13:32:55.973Z,24.74
2023-05-15T13:35:22.953Z,24.28
2023-05-15T13:37:49.907Z,24.04
2023-05-15T13:40:16.653Z,24.78
2023-05-15T13:42:44.262Z,24.58
2023-05-15T13:45:12.451Z,24.51
2023-05-15T13:47:39.567Z,25.22
2023-05-15T13:50:11.084Z,25.57
2023-05-15T13:52:38.179Z,25.00
2023-05-15T13:55:05.285Z,25.40
2023-05-15T13:57:32.336Z,25.95
2023-05-15T13:59:59.202Z,25.99
2023-05-15T14:02:29.297Z,24.96
2023-05-15T14:04:55.793Z,24.28
2023-05-15T14:07:23.200Z,24.76
2023-05-15T14:09:53.114Z,24.38
2023-05-15T14:12:19.807Z,25.06
2023-05-15T14:14:47.007Z,25.12
2023-05-15T14:17:14.065Z,25.46
2023-05-15T14:19:41.027Z,24.15
2023-05-15T14:22:07.516Z,23.92
2023-05-15T14:24:33.975Z,24.35
2023-05-15T14:27:00.687Z,24.47
2023-05-15T14:29:27.233Z,24.14
2023-05-15T14:31:53.880Z,22.84
2023-05-15T14:34:22.507Z,22.21
2023-05-15T14:36:49.729Z,21.76
2023-05-15T14:39:17.014Z,21.30
2023-05-15T14:41:44.559Z,21.19
2023-05-15T14:44:11.095Z,20.41
2023-05-15T14:46:38.183Z,20.89
2023-05-15T14:49:05.176Z,20.22
2023-05-15T14:51:32.267Z,19.77
2023-05-15T14:53:58.946Z,19.65
2023-05-15T14:56:25.928Z,19.45
2023-05-15T14:58:53.716Z,19.62
2023-05-15T15:01:20.772Z,20.12
2023-05-15T15:03:47.500Z,19.56
2023-05-15T15:06:14.099Z,19.88
2023-05-15T15:08:40.747Z,19.14
2023-05-15T15:11:07.865Z,19.42
2023-05-15T15:13:34.478Z,19.33
2023-05-15T15:16:00.976Z,19.57
2023-05-15T15:18:27.508Z,19.43
2023-05-15T15:20:53.969Z,19.28
2023-05-15T15:23:20.503Z,19.13
2023-05-15T15:25:47.042Z,19.32
2023-05-15T15:28:13.534Z,19.65
2023-05-15T15:30:40.114Z,19.51
2023-05-15T15:33:06.700Z,19.71
2023-05-15T15:35:33.274Z,19.65
2023-05-15T15:37:59.776Z,19.32
2023-05-15T15:40:26.546Z,19.26
2023-05-15T15:42:54.269Z,19.63
2023-05-15T15:45:20.898Z,19.90
2023-05-15T15:47:47.934Z,19.21
2023-05-15T15:50:14.515Z,19.68
2023-05-15T15:52:41.521Z,19.40
2023-05-15T15:55:08.763Z,19.65
2023-05-15T15:57:36.531Z,19.63
2023-05-15T16:00:03.280Z,19.93
2023-05-15T16:02:29.887Z,20.20
2023-05-15T16:04:56.403Z,20.59
2023-05-15T16:07:22.958Z,20.49
2023-05-15T16:09:53.749Z,20.46
2023-05-15T16:12:30.419Z,20.36
2023-05-15T16:15:00.158Z,20.05
2023-05-15T16:17:30.777Z,20.24
2023-05-15T16:19:57.231Z,19.95
2023-05-15T16:22:23.672Z,20.03
2023-05-15T16:24:50.559Z,20.13
2023-05-15T16:27:16.998Z,20.07
2023-05-15T16:29:43.467Z,19.73
2023-05-15T16:32:10.022Z,20.18
2023-05-15T16:34:36.638Z,19.99
2023-05-15T16:37:03.540Z,19.49
2023-05-15T16:39:32.296Z,19.87
2023-05-15T16:41:58.879Z,19.81
2023-05-15T16:44:25.340Z,19.47
2023-05-15T16:46:51.861Z,19.74
2023-05-15T16:49:18.470Z,19.26
2023-05-15T16:51:45.161Z,19.98
2023-05-15T16:54:11.659Z,19.63
2023-05-15T16:56:38.259Z,19.77
2023-05-15T16:59:05.011Z,19.50
2023-05-15T17:01:31.530Z,18.91
2023-05-15T17:03:58.098Z,19.31
2023-05-15T17:06:24.720Z,19.18
2023-05-15T17:08:51.176Z,19.10
2023-05-15T17:11:17.780Z,19.16
2023-05-15T17:13:44.942Z,18.50
2023-05-15T17:16:11.544Z,18.40
2023-05-15T17:18:40.826Z,18.22
2023-05-15T17:21:19.697Z,18.29
2023-05-15T17:23:53.604Z,18.29
2023-05-15T17:26:35.612Z,17.98
2023-05-15T17:29:04.046Z,17.92
2023-05-15T17:31:31.281Z,17.82
2023-05-15T17:34:01.806Z,17.73
2023-05-15T17:36:28.416Z,17.37
2023-05-15T17:38:57.803Z,18.19
2023-05-15T17:41:33.053Z,17.55
2023-05-15T17:44:01.103Z,17.80
2023-05-15T17:46:32.092Z,17.80
2023-05-15T17:49:11.295Z,17.72
2023-05-15T17:51:44.245Z,18.10
2023-05-15T17:54:15.789Z,17.79
2023-05-15T17:56:43.229Z,17.94
2023-05-15T17:59:12.074Z,17.46
2023-05-15T18:01:44.467Z,17.21
2023-05-15T18:04:11.590Z,17.38
2023-05-15T18:06:40.246Z,17.14
2023-05-15T18:09:08.113Z,17.17
2023-05-15T18:11:36.602Z,17.18
2023-05-15T18:14:07.724Z,17.59
2023-05-15T18:16:34.469Z,16.99
2023-05-15T18:19:03.085Z,17.17
2023-05-15T18:21:29.664Z,16.68
2023-05-15T18:23:56.128Z,16.63
2023-05-15T18:26:22.621Z,16.33
2023-05-15T18:28:50.140Z,16.28
2023-05-15T18:31:16.714Z,16.10
2023-05-15T18:33:45.271Z,15.89
2023-05-15T18:36:11.886Z,16.00
2023-05-15T18:38:38.420Z,16.06
2023-05-15T18:41:05.115Z,15.62
2023-05-15T18:43:31.595Z,15.94
2023-05-15T18:45:58.104Z,15.44
2023-05-15T18:48:24.693Z,15.40
2023-05-15T18:50:55.799Z,14.92
2023-05-15T18:53:22.316Z,15.29
2023-05-15T18:55:49.127Z,14.90
2023-05-15T18:58:15.742Z,14.46
2023-05-15T19:00:42.275Z,14.84
2023-05-15T19:03:08.982Z,14.42
2023-05-15T19:05:35.731Z,14.51
2023-05-15T19:08:02.294Z,14.21
2023-05-15T19:10:29.751Z,14.18
2023-05-15T19:12:57.081Z,14.25
2023-05-15T19:15:23.963Z,13.95
2023-05-15T19:17:50.751Z,13.68
2023-05-15T19:20:17.422Z,13.64
2023-05-15T19:22:43.983Z,13.87
2023-05-15T19:25:11.023Z,13.92
2023-05-15T19:27:37.840Z,13.92
2023-05-15T19:30:07.065Z,13.42
2023-05-15T19:32:34.248Z,13.32
2023-05-15T19:35:00.871Z,13.62
2023-05-15T19:37:27.335Z,13.16
2023-05-15T19:39:53.855Z,13.57
2023-05-15T19:42:20.352Z,13.16
2023-05-15T19:44:46.836Z,13.22
2023-05-15T19:47:13.281Z,13.20
2023-05-15T19:49:39.837Z,12.89
2023-05-15T19:52:06.511Z,12.84
2023-05-15T19:54:32.988Z,12.79
2023-05-15T19:57:02.672Z,12.48
2023-05-15T19:59:29.826Z,12.47
2023-05-15T20:01:56.413Z,12.60
2023-05-15T20:04:23.015Z,12.87
2023-05-15T20:06:49.513Z,12.88
2023-05-15T20:09:16.030Z,12.42
2023-05-15T20:11:42.871Z,12.81
2023-05-15T20:14:09.527Z,12.64
2023-05-15T20:16:41.298Z,12.29
2023-05-15T20:19:07.980Z,12.38
2023-05-15T20:21:34.455Z,12.24
2023-05-15T20:24:01.140Z,12.68
2023-05-15T20:26:27.929Z,12.52
2023-05-15T20:28:54.425Z,12.35
2023-05-15T20:31:20.980Z,12.23
2023-05-15T20:33:47.526Z,12.24
2023-05-15T20:36:15.408Z,12.15
2023-05-15T20:38:44.884Z,11.99
2023-05-15T20:41:11.374Z,12.53
2023-05-15T20:43:39.146Z,11.95
2023-05-15T20:46:08.749Z,11.91
2023-05-15T20:48:36.451Z,12.16
2023-05-15T20:51:03.264Z,12.04
2023-05-15T20:53:29.882Z,11.91
2023-05-15T20:55:57.426Z,11.89
2023-05-15T20:58:23.908Z,11.81
2023-05-15T21:00:50.604Z,11.99
2023-05-15T21:03:17.320Z,12.22
2023-05-15T21:05:46.730Z,12.10
2023-05-15T21:08:13.770Z,11.99
2023-05-15T21:10:40.265Z,12.05
2023-05-15T21:13:07.844Z,11.59
2023-05-15T21:15:34.633Z,11.43
2023-05-15T21:18:01.858Z,11.33
2023-05-15T21:20:28.588Z,11.64
2023-05-15T21:22:55.252Z,11.20
2023-05-15T21:25:21.765Z,11.72
2023-05-15T21:27:48.183Z,11.55
2023-05-15T21:30:14.937Z,11.29
2023-05-15T21:32:41.534Z,11.19
2023-05-15T21:35:08.479Z,11.42
2023-05-15T21:37:34.914Z,11.18
2023-05-15T21:40:01.953Z,10.80
2023-05-15T21:42:30.534Z,11.11
2023-05-15T21:44:57.158Z,10.82
2023-05-15T21:47:23.649Z,10.74
2023-05-15T21:49:50.196Z,10.46
2023-05-15T21:52:16.635Z,10.38
2023-05-15T21:54:44.474Z,10.59
2023-05-15T21:57:11.041Z,10.95
2023-05-15T21:59:37.555Z,10.54
2023-05-15T22:02:04.320Z,10.67
2023-05-15T22:04:30.941Z,10.42
2023-05-15T22:06:57.529Z,10.43
2023-05-15T22:09:24.015Z,10.57
2023-05-15T22:11:50.792Z,10.20
2023-05-15T22:14:17.368Z,10.31
2023-05-15T22:16:44.030Z,10.42
2023-05-15T22:19:21.475Z,10.54
2023-05-15T22:21:57.094Z,10.55
2023-05-15T22:24:23.793Z,10.89
2023-05-15T22:26:50.301Z,10.62
2023-05-15T22:29:16.769Z,10.61
2023-05-15T22:31:43.284Z,10.47
2023-05-15T22:34:09.786Z,10.37
2023-05-15T22:36:36.728Z,10.57
2023-05-15T22:39:04.259Z,10.35
2023-05-15T22:41:32.825Z,10.75
2023-05-15T22:43:59.350Z,10.83
2023-05-15T22:46:25.912Z,10.56
2023-05-15T22:48:53.064Z,10.47
2023-05-15T22:51:20.447Z,10.09
2023-05-15T22:53:46.908Z,10.31
2023-05-15T22:56:13.394Z,10.70
2023-05-15T22:58:39.860Z,10.29
2023-05-15T23:01:06.386Z,10.69
2023-05-15T23:03:33.117Z,10.90
2023-05-15T23:05:59.572Z,10.53
2023-05-15T23:08:26.158Z,10.46
2023-05-15T23:10:53.331Z,10.32
2023-05-15T23:13:19.807Z,10.62
2023-05-15T23:15:46.560Z,10.76
2023-05-15T23:18:14.316Z,10.78
2023-05-15T23:20:40.988Z,10.88
2023-05-15T23:23:07.562Z,10.55
2023-05-15T23:25:34.095Z,10.67
2023-05-15T23:28:00.587Z,10.58
2023-05-15T23:30:27.326Z,10.46
2023-05-15T23:32:55.534Z,10.78
2023-05-15T23:35:22.312Z,10.53
2023-05-15T23:37:48.748Z,10.77
2023-05-15T23:40:16.361Z,10.87
2023-05-15T23:42:42.859Z,10.64
2023-05-15T23:45:10.197Z,11.10
2023-05-15T23:47:36.722Z,10.75
2023-05-15T23:50:03.691Z,11.14
2023-05-15T23:52:30.147Z,10.72
2023-05-15T23:54:56.630Z,10.55
2023-05-15T23:57:23.070Z,10.78
2023-05-15T23:59:49.591Z,10.86
